sensor_id;sensor_type;location;lat;lon;timestamp;P1;durP1;ratioP1;P2;durP2;ratioP2
35693;SDS011;21812;55.536;37.664;2023-02-24T00:00:04;11.00;;;5.30;;
35693;SDS011;21812;55.536;37.664;2023-02-24T00:02:54;11.93;;;5.30;;
35693;SDS011;21812;55.536;37.664;2023-02-24T00:05:19;9.47;;;5.07;;
35693;SDS011;21812;55.536;37.664;2023-02-24T00:07:48;13.57;;;6.73;;
35693;SDS011;21812;55.536;37.664;2023-02-24T00:10:14;10.43;;;5.47;;
35693;SDS011;21812;55.536;37.664;2023-02-24T00:12:45;10.50;;;5.87;;
35693;SDS011;21812;55.536;37.664;2023-02-24T00:15:12;14.23;;;5.97;;
35693;SDS011;21812;55.536;37.664;2023-02-24T00:17:39;13.50;;;5.73;;
35693;SDS011;21812;55.536;37.664;2023-02-24T00:20:05;11.93;;;5.80;;
35693;SDS011;21812;55.536;37.664;2023-02-24T00:22:32;10.87;;;6.37;;
35693;SDS011;21812;55.536;37.664;2023-02-24T00:24:57;10.00;;;5.47;;
35693;SDS011;21812;55.536;37.664;2023-02-24T00:27:28;13.00;;;6.13;;
35693;SDS011;21812;55.536;37.664;2023-02-24T00:29:55;12.70;;;5.77;;
35693;SDS011;21812;55.536;37.664;2023-02-24T00:32:21;12.37;;;5.90;;
35693;SDS011;21812;55.536;37.664;2023-02-24T00:34:47;12.57;;;5.30;;
35693;SDS011;21812;55.536;37.664;2023-02-24T00:37:12;7.57;;;4.63;;
35693;SDS011;21812;55.536;37.664;2023-02-24T00:39:39;15.03;;;5.93;;
35693;SDS011;21812;55.536;37.664;2023-02-24T00:42:06;13.20;;;5.93;;
35693;SDS011;21812;55.536;37.664;2023-02-24T00:44:34;12.77;;;5.97;;
35693;SDS011;21812;55.536;37.664;2023-02-24T00:47:00;11.23;;;5.80;;
35693;SDS011;21812;55.536;37.664;2023-02-24T00:49:29;11.63;;;5.80;;
35693;SDS011;21812;55.536;37.664;2023-02-24T00:51:55;15.47;;;6.27;;
35693;SDS011;21812;55.536;37.664;2023-02-24T00:54:21;13.43;;;5.10;;
35693;SDS011;21812;55.536;37.664;2023-02-24T00:56:51;14.40;;;5.60;;
35693;SDS011;21812;55.536;37.664;2023-02-24T00:59:17;11.97;;;5.37;;
35693;SDS011;21812;55.536;37.664;2023-02-24T01:01:48;10.03;;;5.00;;
35693;SDS011;21812;55.536;37.664;2023-02-24T01:04:15;11.73;;;5.93;;
35693;SDS011;21812;55.536;37.664;2023-02-24T01:06:44;11.83;;;6.33;;
35693;SDS011;21812;55.536;37.664;2023-02-24T01:09:13;14.57;;;6.17;;
35693;SDS011;21812;55.536;37.664;2023-02-24T01:11:41;10.47;;;5.97;;
35693;SDS011;21812;55.536;37.664;2023-02-24T01:14:28;12.37;;;5.80;;
35693;SDS011;21812;55.536;37.664;2023-02-24T01:16:55;16.87;;;6.83;;
35693;SDS011;21812;55.536;37.664;2023-02-24T01:19:24;9.07;;;5.27;;
35693;SDS011;21812;55.536;37.664;2023-02-24T01:22:02;12.03;;;5.17;;
35693;SDS011;21812;55.536;37.664;2023-02-24T01:24:33;13.07;;;5.63;;
35693;SDS011;21812;55.536;37.664;2023-02-24T01:27:01;8.83;;;4.73;;
35693;SDS011;21812;55.536;37.664;2023-02-24T01:29:26;15.67;;;6.43;;
35693;SDS011;21812;55.536;37.664;2023-02-24T01:31:54;9.87;;;5.27;;
35693;SDS011;21812;55.536;37.664;2023-02-24T01:34:24;9.97;;;5.27;;
35693;SDS011;21812;55.536;37.664;2023-02-24T01:36:50;11.43;;;5.77;;
35693;SDS011;21812;55.536;37.664;2023-02-24T01:39:18;13.23;;;5.67;;
35693;SDS011;21812;55.536;37.664;2023-02-24T01:41:46;11.07;;;5.57;;
35693;SDS011;21812;55.536;37.664;2023-02-24T01:46:43;11.57;;;4.67;;
35693;SDS011;21812;55.536;37.664;2023-02-24T01:49:16;12.63;;;5.50;;
35693;SDS011;21812;55.536;37.664;2023-02-24T01:54:41;13.40;;;5.80;;
35693;SDS011;21812;55.536;37.664;2023-02-24T01:57:14;11.75;;;4.60;;
35693;SDS011;21812;55.536;37.664;2023-02-24T01:59:44;8.35;;;4.50;;
35693;SDS011;21812;55.536;37.664;2023-02-24T02:02:14;11.27;;;4.73;;
35693;SDS011;21812;55.536;37.664;2023-02-24T02:04:48;8.73;;;4.40;;
35693;SDS011;21812;55.536;37.664;2023-02-24T02:07:19;10.77;;;5.33;;
35693;SDS011;21812;55.536;37.664;2023-02-24T02:09:48;11.47;;;5.73;;
35693;SDS011;21812;55.536;37.664;2023-02-24T02:12:14;10.23;;;4.83;;
35693;SDS011;21812;55.536;37.664;2023-02-24T02:14:41;9.40;;;5.73;;
35693;SDS011;21812;55.536;37.664;2023-02-24T02:25:22;11.57;;;5.40;;
35693;SDS011;21812;55.536;37.664;2023-02-24T02:40:23;9.67;;;4.67;;
35693;SDS011;21812;55.536;37.664;2023-02-24T02:46:00;7.80;;;4.00;;
35693;SDS011;21812;55.536;37.664;2023-02-24T02:48:42;11.50;;;4.73;;
35693;SDS011;21812;55.536;37.664;2023-02-24T02:51:25;10.63;;;4.27;;
35693;SDS011;21812;55.536;37.664;2023-02-24T02:56:29;12.47;;;5.63;;
35693;SDS011;21812;55.536;37.664;2023-02-24T02:58:59;8.10;;;4.40;;
35693;SDS011;21812;55.536;37.664;2023-02-24T03:01:28;8.80;;;3.83;;
35693;SDS011;21812;55.536;37.664;2023-02-24T03:03:59;7.00;;;3.87;;
35693;SDS011;21812;55.536;37.664;2023-02-24T03:06:54;7.53;;;3.73;;
35693;SDS011;21812;55.536;37.664;2023-02-24T03:09:27;8.13;;;4.77;;
35693;SDS011;21812;55.536;37.664;2023-02-24T03:11:58;10.15;;;4.95;;
35693;SDS011;21812;55.536;37.664;2023-02-24T03:14:33;7.87;;;4.37;;
35693;SDS011;21812;55.536;37.664;2023-02-24T03:17:03;8.57;;;4.60;;
35693;SDS011;21812;55.536;37.664;2023-02-24T03:19:35;8.43;;;4.97;;
35693;SDS011;21812;55.536;37.664;2023-02-24T03:22:05;8.83;;;5.00;;
35693;SDS011;21812;55.536;37.664;2023-02-24T03:24:41;9.63;;;5.00;;
35693;SDS011;21812;55.536;37.664;2023-02-24T03:27:26;9.30;;;4.23;;
35693;SDS011;21812;55.536;37.664;2023-02-24T03:29:57;7.87;;;4.43;;
35693;SDS011;21812;55.536;37.664;2023-02-24T03:32:51;8.73;;;4.77;;
35693;SDS011;21812;55.536;37.664;2023-02-24T03:35:30;17.83;;;5.40;;
35693;SDS011;21812;55.536;37.664;2023-02-24T03:38:01;7.87;;;4.67;;
35693;SDS011;21812;55.536;37.664;2023-02-24T03:40:27;10.33;;;4.50;;
35693;SDS011;21812;55.536;37.664;2023-02-24T03:43:05;8.97;;;4.47;;
35693;SDS011;21812;55.536;37.664;2023-02-24T03:45:37;9.43;;;4.93;;
35693;SDS011;21812;55.536;37.664;2023-02-24T03:48:05;7.93;;;4.20;;
35693;SDS011;21812;55.536;37.664;2023-02-24T03:50:33;11.87;;;5.50;;
35693;SDS011;21812;55.536;37.664;2023-02-24T03:53:28;11.20;;;5.40;;
35693;SDS011;21812;55.536;37.664;2023-02-24T04:01:40;8.33;;;4.37;;
35693;SDS011;21812;55.536;37.664;2023-02-24T04:07:32;7.88;;;4.47;;
35693;SDS011;21812;55.536;37.664;2023-02-24T04:12:47;7.77;;;4.60;;
35693;SDS011;21812;55.536;37.664;2023-02-24T04:15:31;10.23;;;4.57;;
35693;SDS011;21812;55.536;37.664;2023-02-24T04:18:24;9.63;;;4.33;;
35693;SDS011;21812;55.536;37.664;2023-02-24T04:20:53;10.47;;;4.70;;
35693;SDS011;21812;55.536;37.664;2023-02-24T04:23:25;10.40;;;5.50;;
35693;SDS011;21812;55.536;37.664;2023-02-24T04:25:55;8.90;;;4.50;;
35693;SDS011;21812;55.536;37.664;2023-02-24T04:28:22;9.00;;;4.93;;
35693;SDS011;21812;55.536;37.664;2023-02-24T04:30:51;11.37;;;5.40;;
35693;SDS011;21812;55.536;37.664;2023-02-24T04:33:21;8.17;;;4.83;;
35693;SDS011;21812;55.536;37.664;2023-02-24T04:35:49;9.77;;;4.33;;
35693;SDS011;21812;55.536;37.664;2023-02-24T04:38:15;10.97;;;5.67;;
35693;SDS011;21812;55.536;37.664;2023-02-24T04:40:42;10.30;;;4.70;;
35693;SDS011;21812;55.536;37.664;2023-02-24T04:43:08;10.27;;;4.70;;
35693;SDS011;21812;55.536;37.664;2023-02-24T04:45:33;9.23;;;4.77;;
35693;SDS011;21812;55.536;37.664;2023-02-24T04:48:00;11.43;;;4.13;;
35693;SDS011;21812;55.536;37.664;2023-02-24T04:50:32;11.37;;;5.07;;
35693;SDS011;21812;55.536;37.664;2023-02-24T04:53:00;10.43;;;4.43;;
35693;SDS011;21812;55.536;37.664;2023-02-24T04:55:31;10.57;;;5.13;;
35693;SDS011;21812;55.536;37.664;2023-02-24T04:58:02;8.30;;;4.43;;
35693;SDS011;21812;55.536;37.664;2023-02-24T05:00:27;8.30;;;4.77;;
35693;SDS011;21812;55.536;37.664;2023-02-24T05:03:00;9.33;;;4.30;;
35693;SDS011;21812;55.536;37.664;2023-02-24T05:05:28;11.43;;;5.37;;
35693;SDS011;21812;55.536;37.664;2023-02-24T05:07:55;7.83;;;4.00;;
35693;SDS011;21812;55.536;37.664;2023-02-24T05:10:30;15.30;;;5.30;;
35693;SDS011;21812;55.536;37.664;2023-02-24T05:13:01;9.33;;;4.97;;
35693;SDS011;21812;55.536;37.664;2023-02-24T05:15:26;11.07;;;5.23;;
35693;SDS011;21812;55.536;37.664;2023-02-24T05:17:57;9.57;;;4.20;;
35693;SDS011;21812;55.536;37.664;2023-02-24T05:20:24;9.10;;;4.67;;
35693;SDS011;21812;55.536;37.664;2023-02-24T05:23:09;13.13;;;4.67;;
35693;SDS011;21812;55.536;37.664;2023-02-24T05:25:35;11.27;;;5.67;;
35693;SDS011;21812;55.536;37.664;2023-02-24T05:28:05;10.17;;;5.07;;
35693;SDS011;21812;55.536;37.664;2023-02-24T05:30:31;7.80;;;4.17;;
35693;SDS011;21812;55.536;37.664;2023-02-24T05:32:57;10.00;;;5.07;;
35693;SDS011;21812;55.536;37.664;2023-02-24T05:35:23;11.27;;;4.97;;
35693;SDS011;21812;55.536;37.664;2023-02-24T05:37:49;9.87;;;4.57;;
35693;SDS011;21812;55.536;37.664;2023-02-24T05:40:16;9.47;;;5.70;;
35693;SDS011;21812;55.536;37.664;2023-02-24T05:42:44;10.73;;;5.00;;
35693;SDS011;21812;55.536;37.664;2023-02-24T05:45:10;8.80;;;5.17;;
35693;SDS011;21812;55.536;37.664;2023-02-24T05:47:36;9.67;;;5.43;;
35693;SDS011;21812;55.536;37.664;2023-02-24T05:50:02;9.77;;;5.13;;
35693;SDS011;21812;55.536;37.664;2023-02-24T05:52:28;11.13;;;5.77;;
35693;SDS011;21812;55.536;37.664;2023-02-24T05:54:54;9.67;;;5.33;;
35693;SDS011;21812;55.536;37.664;2023-02-24T05:57:20;9.13;;;5.13;;
35693;SDS011;21812;55.536;37.664;2023-02-24T05:59:49;10.67;;;5.13;;
35693;SDS011;21812;55.536;37.664;2023-02-24T06:02:16;10.40;;;4.50;;
35693;SDS011;21812;55.536;37.664;2023-02-24T06:04:51;12.13;;;6.00;;
35693;SDS011;21812;55.536;37.664;2023-02-24T06:07:28;10.90;;;5.37;;
35693;SDS011;21812;55.536;37.664;2023-02-24T06:09:59;8.33;;;5.10;;
35693;SDS011;21812;55.536;37.664;2023-02-24T06:12:27;11.37;;;4.90;;
35693;SDS011;21812;55.536;37.664;2023-02-24T06:14:56;9.53;;;5.00;;
35693;SDS011;21812;55.536;37.664;2023-02-24T06:17:24;10.70;;;5.37;;
35693;SDS011;21812;55.536;37.664;2023-02-24T06:19:51;10.17;;;5.47;;
35693;SDS011;21812;55.536;37.664;2023-02-24T06:22:18;13.37;;;5.83;;
35693;SDS011;21812;55.536;37.664;2023-02-24T06:24:45;12.77;;;5.90;;
35693;SDS011;21812;55.536;37.664;2023-02-24T06:27:13;10.47;;;5.20;;
35693;SDS011;21812;55.536;37.664;2023-02-24T06:29:46;8.37;;;4.73;;
35693;SDS011;21812;55.536;37.664;2023-02-24T06:32:20;12.90;;;5.07;;
35693;SDS011;21812;55.536;37.664;2023-02-24T06:34:47;10.97;;;5.57;;
35693;SDS011;21812;55.536;37.664;2023-02-24T06:37:13;10.80;;;5.37;;
35693;SDS011;21812;55.536;37.664;2023-02-24T06:39:40;8.20;;;4.37;;
35693;SDS011;21812;55.536;37.664;2023-02-24T06:42:07;13.43;;;5.37;;
35693;SDS011;21812;55.536;37.664;2023-02-24T06:44:36;10.47;;;4.73;;
35693;SDS011;21812;55.536;37.664;2023-02-24T06:47:03;12.50;;;6.00;;
35693;SDS011;21812;55.536;37.664;2023-02-24T06:49:30;14.37;;;5.80;;
35693;SDS011;21812;55.536;37.664;2023-02-24T06:51:57;8.97;;;4.97;;
35693;SDS011;21812;55.536;37.664;2023-02-24T06:54:24;12.37;;;6.67;;
35693;SDS011;21812;55.536;37.664;2023-02-24T06:56:53;11.40;;;5.73;;
35693;SDS011;21812;55.536;37.664;2023-02-24T06:59:19;12.10;;;6.00;;
35693;SDS011;21812;55.536;37.664;2023-02-24T07:01:56;9.90;;;5.23;;
35693;SDS011;21812;55.536;37.664;2023-02-24T07:04:24;14.97;;;5.73;;
35693;SDS011;21812;55.536;37.664;2023-02-24T07:06:51;14.87;;;6.10;;
35693;SDS011;21812;55.536;37.664;2023-02-24T07:09:23;14.37;;;6.43;;
35693;SDS011;21812;55.536;37.664;2023-02-24T07:11:51;10.80;;;5.07;;
35693;SDS011;21812;55.536;37.664;2023-02-24T07:14:24;12.80;;;7.63;;
35693;SDS011;21812;55.536;37.664;2023-02-24T07:16:51;10.27;;;5.43;;
35693;SDS011;21812;55.536;37.664;2023-02-24T07:19:25;12.70;;;6.23;;
35693;SDS011;21812;55.536;37.664;2023-02-24T07:21:59;10.83;;;5.97;;
35693;SDS011;21812;55.536;37.664;2023-02-24T07:24:28;13.40;;;7.03;;
35693;SDS011;21812;55.536;37.664;2023-02-24T07:27:13;13.90;;;6.67;;
35693;SDS011;21812;55.536;37.664;2023-02-24T07:29:46;14.47;;;5.93;;
35693;SDS011;21812;55.536;37.664;2023-02-24T07:32:13;13.27;;;7.17;;
35693;SDS011;21812;55.536;37.664;2023-02-24T07:34:39;19.23;;;6.40;;
35693;SDS011;21812;55.536;37.664;2023-02-24T07:37:04;15.00;;;8.30;;
35693;SDS011;21812;55.536;37.664;2023-02-24T07:39:33;13.97;;;7.13;;
35693;SDS011;21812;55.536;37.664;2023-02-24T07:42:01;12.93;;;6.77;;
35693;SDS011;21812;55.536;37.664;2023-02-24T07:44:26;13.73;;;8.33;;
35693;SDS011;21812;55.536;37.664;2023-02-24T07:46:53;12.50;;;6.87;;
35693;SDS011;21812;55.536;37.664;2023-02-24T07:49:21;14.20;;;6.77;;
35693;SDS011;21812;55.536;37.664;2023-02-24T07:51:50;15.13;;;7.17;;
35693;SDS011;21812;55.536;37.664;2023-02-24T07:54:20;11.07;;;6.63;;
35693;SDS011;21812;55.536;37.664;2023-02-24T07:56:47;15.90;;;8.20;;
35693;SDS011;21812;55.536;37.664;2023-02-24T07:59:30;14.02;;;7.50;;
35693;SDS011;21812;55.536;37.664;2023-02-24T08:01:58;17.87;;;7.63;;
35693;SDS011;21812;55.536;37.664;2023-02-24T08:04:29;13.67;;;7.33;;
35693;SDS011;21812;55.536;37.664;2023-02-24T08:06:56;18.73;;;8.30;;
35693;SDS011;21812;55.536;37.664;2023-02-24T08:09:27;15.37;;;7.37;;
35693;SDS011;21812;55.536;37.664;2023-02-24T08:12:14;17.60;;;7.53;;
35693;SDS011;21812;55.536;37.664;2023-02-24T08:14:43;12.37;;;7.53;;
35693;SDS011;21812;55.536;37.664;2023-02-24T08:17:15;14.33;;;7.40;;
35693;SDS011;21812;55.536;37.664;2023-02-24T08:19:46;15.23;;;7.40;;
35693;SDS011;21812;55.536;37.664;2023-02-24T08:22:13;15.83;;;7.87;;
35693;SDS011;21812;55.536;37.664;2023-02-24T08:27:19;15.30;;;7.37;;
35693;SDS011;21812;55.536;37.664;2023-02-24T08:29:47;16.53;;;7.67;;
35693;SDS011;21812;55.536;37.664;2023-02-24T08:37:29;17.27;;;7.43;;
35693;SDS011;21812;55.536;37.664;2023-02-24T08:40:07;14.73;;;6.67;;
35693;SDS011;21812;55.536;37.664;2023-02-24T08:42:55;14.30;;;7.13;;
35693;SDS011;21812;55.536;37.664;2023-02-24T08:45:30;13.97;;;7.37;;
35693;SDS011;21812;55.536;37.664;2023-02-24T08:47:58;17.80;;;7.30;;
35693;SDS011;21812;55.536;37.664;2023-02-24T08:50:25;12.97;;;5.83;;
35693;SDS011;21812;55.536;37.664;2023-02-24T08:52:56;16.77;;;8.20;;
35693;SDS011;21812;55.536;37.664;2023-02-24T08:55:29;15.63;;;7.60;;
35693;SDS011;21812;55.536;37.664;2023-02-24T08:57:57;15.60;;;7.63;;
35693;SDS011;21812;55.536;37.664;2023-02-24T09:00:28;15.97;;;7.20;;
35693;SDS011;21812;55.536;37.664;2023-02-24T09:03:16;15.47;;;7.23;;
35693;SDS011;21812;55.536;37.664;2023-02-24T09:06:06;19.07;;;8.87;;
35693;SDS011;21812;55.536;37.664;2023-02-24T09:08:36;14.00;;;6.83;;
35693;SDS011;21812;55.536;37.664;2023-02-24T09:11:08;15.00;;;7.10;;
35693;SDS011;21812;55.536;37.664;2023-02-24T09:13:41;13.37;;;6.03;;
35693;SDS011;21812;55.536;37.664;2023-02-24T09:16:18;13.80;;;7.20;;
35693;SDS011;21812;55.536;37.664;2023-02-24T09:18:48;17.63;;;8.30;;
35693;SDS011;21812;55.536;37.664;2023-02-24T09:21:43;17.10;;;8.03;;
35693;SDS011;21812;55.536;37.664;2023-02-24T09:24:14;16.20;;;8.20;;
35693;SDS011;21812;55.536;37.664;2023-02-24T09:26:54;15.37;;;7.53;;
35693;SDS011;21812;55.536;37.664;2023-02-24T09:29:23;17.07;;;8.80;;
35693;SDS011;21812;55.536;37.664;2023-02-24T09:32:03;14.10;;;7.43;;
35693;SDS011;21812;55.536;37.664;2023-02-24T09:34:33;17.27;;;7.93;;
35693;SDS011;21812;55.536;37.664;2023-02-24T09:37:01;18.93;;;7.83;;
35693;SDS011;21812;55.536;37.664;2023-02-24T09:39:34;15.03;;;8.87;;
35693;SDS011;21812;55.536;37.664;2023-02-24T09:42:32;13.90;;;6.90;;
35693;SDS011;21812;55.536;37.664;2023-02-24T09:45:20;16.70;;;8.77;;
35693;SDS011;21812;55.536;37.664;2023-02-24T09:47:57;18.50;;;9.20;;
35693;SDS011;21812;55.536;37.664;2023-02-24T09:50:34;16.40;;;8.33;;
35693;SDS011;21812;55.536;37.664;2023-02-24T09:53:22;15.47;;;7.53;;
35693;SDS011;21812;55.536;37.664;2023-02-24T10:06:47;14.20;;;8.17;;
35693;SDS011;21812;55.536;37.664;2023-02-24T10:09:23;14.63;;;8.23;;
35693;SDS011;21812;55.536;37.664;2023-02-24T10:15:15;16.43;;;8.00;;
35693;SDS011;21812;55.536;37.664;2023-02-24T10:17:47;15.70;;;7.73;;
35693;SDS011;21812;55.536;37.664;2023-02-24T10:23:14;16.13;;;8.90;;
35693;SDS011;21812;55.536;37.664;2023-02-24T10:25:54;13.33;;;7.27;;
35693;SDS011;21812;55.536;37.664;2023-02-24T10:34:10;15.80;;;8.83;;
35693;SDS011;21812;55.536;37.664;2023-02-24T10:36:38;26.00;;;10.30;;
35693;SDS011;21812;55.536;37.664;2023-02-24T10:39:21;16.63;;;8.93;;
35693;SDS011;21812;55.536;37.664;2023-02-24T10:41:51;17.23;;;7.83;;
35693;SDS011;21812;55.536;37.664;2023-02-24T10:44:25;17.37;;;8.70;;
35693;SDS011;21812;55.536;37.664;2023-02-24T10:47:01;17.97;;;8.70;;
35693;SDS011;21812;55.536;37.664;2023-02-24T10:52:28;14.70;;;7.87;;
35693;SDS011;21812;55.536;37.664;2023-02-24T10:55:00;15.27;;;8.53;;
35693;SDS011;21812;55.536;37.664;2023-02-24T10:57:40;14.33;;;7.50;;
35693;SDS011;21812;55.536;37.664;2023-02-24T11:00:20;17.17;;;8.10;;
35693;SDS011;21812;55.536;37.664;2023-02-24T11:03:16;13.32;;;7.45;;
35693;SDS011;21812;55.536;37.664;2023-02-24T11:06:00;17.30;;;8.40;;
35693;SDS011;21812;55.536;37.664;2023-02-24T11:08:29;14.17;;;7.90;;
35693;SDS011;21812;55.536;37.664;2023-02-24T11:11:11;14.30;;;8.23;;
35693;SDS011;21812;55.536;37.664;2023-02-24T11:13:49;13.10;;;8.33;;
35693;SDS011;21812;55.536;37.664;2023-02-24T11:16:45;15.60;;;7.83;;
35693;SDS011;21812;55.536;37.664;2023-02-24T11:19:34;13.57;;;7.67;;
35693;SDS011;21812;55.536;37.664;2023-02-24T11:22:09;17.00;;;8.90;;
35693;SDS011;21812;55.536;37.664;2023-02-24T11:24:40;18.93;;;8.97;;
35693;SDS011;21812;55.536;37.664;2023-02-24T11:27:09;16.27;;;8.97;;
35693;SDS011;21812;55.536;37.664;2023-02-24T11:29:44;14.73;;;7.43;;
35693;SDS011;21812;55.536;37.664;2023-02-24T11:32:35;14.93;;;7.07;;
35693;SDS011;21812;55.536;37.664;2023-02-24T11:40:38;13.43;;;8.00;;
35693;SDS011;21812;55.536;37.664;2023-02-24T11:46:11;16.10;;;8.47;;
35693;SDS011;21812;55.536;37.664;2023-02-24T11:51:18;15.20;;;9.73;;
35693;SDS011;21812;55.536;37.664;2023-02-24T11:56:33;14.17;;;8.20;;
35693;SDS011;21812;55.536;37.664;2023-02-24T12:07:17;15.27;;;7.80;;
35693;SDS011;21812;55.536;37.664;2023-02-24T12:09:55;13.83;;;7.47;;
35693;SDS011;21812;55.536;37.664;2023-02-24T12:12:34;16.60;;;7.82;;
35693;SDS011;21812;55.536;37.664;2023-02-24T12:15:10;13.90;;;7.87;;
35693;SDS011;21812;55.536;37.664;2023-02-24T12:20:38;15.37;;;8.60;;
35693;SDS011;21812;55.536;37.664;2023-02-24T12:23:15;13.07;;;7.93;;
35693;SDS011;21812;55.536;37.664;2023-02-24T12:31:29;15.82;;;8.60;;
35693;SDS011;21812;55.536;37.664;2023-02-24T12:34:02;14.00;;;9.17;;
35693;SDS011;21812;55.536;37.664;2023-02-24T12:45:20;17.07;;;8.33;;
35693;SDS011;21812;55.536;37.664;2023-02-24T12:56:18;13.87;;;8.40;;
35693;SDS011;21812;55.536;37.664;2023-02-24T12:58:55;16.80;;;8.50;;
35693;SDS011;21812;55.536;37.664;2023-02-24T13:13:12;14.03;;;8.00;;
35693;SDS011;21812;55.536;37.664;2023-02-24T13:16:04;16.93;;;8.67;;
35693;SDS011;21812;55.536;37.664;2023-02-24T13:18:34;13.77;;;7.90;;
35693;SDS011;21812;55.536;37.664;2023-02-24T13:21:22;15.97;;;7.77;;
35693;SDS011;21812;55.536;37.664;2023-02-24T13:23:52;12.83;;;7.63;;
35693;SDS011;21812;55.536;37.664;2023-02-24T13:26:25;14.97;;;9.20;;
35693;SDS011;21812;55.536;37.664;2023-02-24T13:31:25;15.27;;;7.33;;
35693;SDS011;21812;55.536;37.664;2023-02-24T13:33:51;19.17;;;8.60;;
35693;SDS011;21812;55.536;37.664;2023-02-24T13:36:19;14.83;;;7.53;;
35693;SDS011;21812;55.536;37.664;2023-02-24T13:38:47;14.97;;;8.57;;
35693;SDS011;21812;55.536;37.664;2023-02-24T13:46:28;17.07;;;8.30;;
35693;SDS011;21812;55.536;37.664;2023-02-24T13:55:13;15.47;;;8.87;;
35693;SDS011;21812;55.536;37.664;2023-02-24T14:03:28;15.23;;;8.40;;
35693;SDS011;21812;55.536;37.664;2023-02-24T14:05:54;17.43;;;10.07;;
35693;SDS011;21812;55.536;37.664;2023-02-24T14:08:27;16.50;;;8.23;;
35693;SDS011;21812;55.536;37.664;2023-02-24T14:11:05;13.00;;;7.43;;
35693;SDS011;21812;55.536;37.664;2023-02-24T14:13:34;15.63;;;8.57;;
35693;SDS011;21812;55.536;37.664;2023-02-24T14:16:03;23.50;;;8.80;;
35693;SDS011;21812;55.536;37.664;2023-02-24T14:18:32;13.73;;;7.60;;
35693;SDS011;21812;55.536;37.664;2023-02-24T14:20:57;14.53;;;8.30;;
35693;SDS011;21812;55.536;37.664;2023-02-24T14:26:10;25.63;;;13.23;;
35693;SDS011;21812;55.536;37.664;2023-02-24T14:28:38;16.57;;;9.33;;
35693;SDS011;21812;55.536;37.664;2023-02-24T14:31:14;14.00;;;7.37;;
35693;SDS011;21812;55.536;37.664;2023-02-24T14:33:41;21.60;;;11.77;;
35693;SDS011;21812;55.536;37.664;2023-02-24T14:36:25;23.33;;;12.53;;
35693;SDS011;21812;55.536;37.664;2023-02-24T14:41:26;13.87;;;9.23;;
35693;SDS011;21812;55.536;37.664;2023-02-24T14:43:52;15.83;;;8.30;;
35693;SDS011;21812;55.536;37.664;2023-02-24T14:46:18;17.03;;;11.20;;
35693;SDS011;21812;55.536;37.664;2023-02-24T14:48:44;15.53;;;8.53;;
35693;SDS011;21812;55.536;37.664;2023-02-24T14:53:47;15.33;;;8.87;;
35693;SDS011;21812;55.536;37.664;2023-02-24T14:56:16;17.53;;;9.30;;
35693;SDS011;21812;55.536;37.664;2023-02-24T14:58:46;18.93;;;8.87;;
35693;SDS011;21812;55.536;37.664;2023-02-24T15:01:42;16.00;;;9.20;;
35693;SDS011;21812;55.536;37.664;2023-02-24T15:04:13;13.37;;;8.17;;
35693;SDS011;21812;55.536;37.664;2023-02-24T15:06:49;15.50;;;9.07;;
35693;SDS011;21812;55.536;37.664;2023-02-24T15:09:17;16.30;;;8.57;;
35693;SDS011;21812;55.536;37.664;2023-02-24T15:11:45;15.27;;;9.13;;
35693;SDS011;21812;55.536;37.664;2023-02-24T15:14:19;17.93;;;10.10;;
35693;SDS011;21812;55.536;37.664;2023-02-24T15:16:56;18.33;;;9.17;;
35693;SDS011;21812;55.536;37.664;2023-02-24T15:19:37;18.90;;;10.80;;
35693;SDS011;21812;55.536;37.664;2023-02-24T15:24:54;15.03;;;9.03;;
35693;SDS011;21812;55.536;37.664;2023-02-24T15:27:48;17.77;;;8.57;;
35693;SDS011;21812;55.536;37.664;2023-02-24T15:30:24;19.03;;;9.37;;
35693;SDS011;21812;55.536;37.664;2023-02-24T15:32:57;17.10;;;10.03;;
35693;SDS011;21812;55.536;37.664;2023-02-24T15:35:25;15.47;;;9.80;;
35693;SDS011;21812;55.536;37.664;2023-02-24T15:37:51;17.40;;;9.33;;
35693;SDS011;21812;55.536;37.664;2023-02-24T15:40:22;22.23;;;10.20;;
35693;SDS011;21812;55.536;37.664;2023-02-24T15:42:51;19.13;;;9.73;;
35693;SDS011;21812;55.536;37.664;2023-02-24T15:45:26;19.50;;;9.90;;
35693;SDS011;21812;55.536;37.664;2023-02-24T15:47:58;17.77;;;10.10;;
35693;SDS011;21812;55.536;37.664;2023-02-24T15:50:25;18.53;;;10.90;;
35693;SDS011;21812;55.536;37.664;2023-02-24T15:52:54;19.37;;;10.93;;
35693;SDS011;21812;55.536;37.664;2023-02-24T15:55:24;17.50;;;9.87;;
35693;SDS011;21812;55.536;37.664;2023-02-24T15:58:01;18.03;;;10.00;;
35693;SDS011;21812;55.536;37.664;2023-02-24T16:00:28;19.80;;;10.07;;
35693;SDS011;21812;55.536;37.664;2023-02-24T16:02:55;17.07;;;9.50;;
35693;SDS011;21812;55.536;37.664;2023-02-24T16:05:21;18.60;;;10.33;;
35693;SDS011;21812;55.536;37.664;2023-02-24T16:07:47;20.93;;;11.37;;
35693;SDS011;21812;55.536;37.664;2023-02-24T16:10:15;16.03;;;9.20;;
35693;SDS011;21812;55.536;37.664;2023-02-24T16:12:46;19.73;;;10.30;;
35693;SDS011;21812;55.536;37.664;2023-02-24T16:15:33;18.47;;;10.00;;
35693;SDS011;21812;55.536;37.664;2023-02-24T16:18:03;18.33;;;10.67;;
35693;SDS011;21812;55.536;37.664;2023-02-24T16:20:38;20.57;;;10.67;;
35693;SDS011;21812;55.536;37.664;2023-02-24T16:23:04;18.87;;;11.07;;
35693;SDS011;21812;55.536;37.664;2023-02-24T16:25:40;20.60;;;11.13;;
35693;SDS011;21812;55.536;37.664;2023-02-24T16:28:17;25.30;;;13.13;;
35693;SDS011;21812;55.536;37.664;2023-02-24T16:30:47;52.23;;;25.37;;
35693;SDS011;21812;55.536;37.664;2023-02-24T16:33:15;24.20;;;12.77;;
35693;SDS011;21812;55.536;37.664;2023-02-24T16:35:42;26.90;;;15.27;;
35693;SDS011;21812;55.536;37.664;2023-02-24T16:38:13;19.10;;;10.70;;
35693;SDS011;21812;55.536;37.664;2023-02-24T16:40:41;19.87;;;11.20;;
35693;SDS011;21812;55.536;37.664;2023-02-24T16:43:09;21.07;;;11.60;;
35693;SDS011;21812;55.536;37.664;2023-02-24T16:45:35;25.20;;;13.07;;
35693;SDS011;21812;55.536;37.664;2023-02-24T16:48:21;23.23;;;11.13;;
35693;SDS011;21812;55.536;37.664;2023-02-24T16:50:49;21.93;;;10.80;;
35693;SDS011;21812;55.536;37.664;2023-02-24T16:53:15;16.80;;;11.13;;
35693;SDS011;21812;55.536;37.664;2023-02-24T16:55:43;21.00;;;11.73;;
35693;SDS011;21812;55.536;37.664;2023-02-24T16:58:09;20.83;;;11.20;;
35693;SDS011;21812;55.536;37.664;2023-02-24T17:00:36;22.17;;;11.97;;
35693;SDS011;21812;55.536;37.664;2023-02-24T17:03:05;24.63;;;11.23;;
35693;SDS011;21812;55.536;37.664;2023-02-24T17:05:40;25.87;;;12.00;;
35693;SDS011;21812;55.536;37.664;2023-02-24T17:08:05;18.30;;;11.33;;
35693;SDS011;21812;55.536;37.664;2023-02-24T17:10:31;20.90;;;11.43;;
35693;SDS011;21812;55.536;37.664;2023-02-24T17:12:57;20.83;;;12.00;;
35693;SDS011;21812;55.536;37.664;2023-02-24T17:15:23;24.63;;;12.23;;
35693;SDS011;21812;55.536;37.664;2023-02-24T17:17:49;23.00;;;11.93;;
35693;SDS011;21812;55.536;37.664;2023-02-24T17:20:16;22.10;;;12.20;;
35693;SDS011;21812;55.536;37.664;2023-02-24T17:22:44;20.70;;;12.33;;
35693;SDS011;21812;55.536;37.664;2023-02-24T17:25:12;20.93;;;11.93;;
35693;SDS011;21812;55.536;37.664;2023-02-24T17:27:46;20.63;;;12.20;;
35693;SDS011;21812;55.536;37.664;2023-02-24T17:30:13;21.00;;;11.53;;
35693;SDS011;21812;55.536;37.664;2023-02-24T17:32:41;21.60;;;11.30;;